Hurdland, MO (63547)

4:00 PM CDT on October 24, 2014 (GMT -0500)
La Plata | Change Station
CLOSE
Current Station
Personal Weather Station
Location: La Plata, MO
Elevation: 928 ft
Nearby Weather Stations

Elev 928 ft 40.03 °N, 92.48 °W | Updated 3 seconds ago

Partly Cloudy
Partly Cloudy
71.6 °F
Feels Like 74 °F
N
6.9
Wind Variable Wind from SW
Gusts 10.7 mph

Today
High -- | Low -- °F
--% Chance of Precip.
Yesterday
High -- | Low -- °F
Precip. -- in
7:29 AM 6:16 PM
New Moon, 1% visible
Pressure 29.95 in
Visibility 9.0 miles
Clouds Clear
Heat Index 74 °F
Dew Point 62 °F
Humidity 71%
Rainfall 0.00 in
Snow Depth Not available.
UV 2 out of 12
Pollen 2.00 out of 12
Air Quality Not available.
Flu Activity No Activity
METAR KIRK 242055Z AUTO 21010KT 9SM CLR 22/17 A2995 RMK AO2 SLP142 T02170167 56026

More Conditions Fewer Conditions

Pressure 29.95 in
Visibility 9.0 miles
Clouds Clear
Heat Index 74 °F
Dew Point 62 °F
Humidity 71%
Rainfall 0.00 in
Snow Depth Not available.
UV 2 out of 12
Pollen 2.00 out of 12
Air Quality Not available.
Flu Activity No Activity
METAR KIRK 242055Z AUTO 21010KT 9SM CLR 22/17 A2995 RMK AO2 SLP142 T02170167 56026

More Conditions Fewer Conditions

10-Day Weather Forecast

Almanac

Astronomy

Oct. 24, 2014 Rise Set
Actual Time 7:29 AM CDT 6:16 PM CDT
Civil Twilight 7:01 AM CDT 6:44 PM CDT
Nautical Twilight 6:30 AM CDT 7:16 PM CDT
Astronomical Twilight 5:58 AM CDT 7:47 PM CDT
Moon 8:09 AM CDT 6:56 PM CDT
Length of Visible Light 11h 42m
Length of Day
10h 47m
Tomorrow will be 2m 26s shorter.
New Moon, 1% of the Moon is Illuminated
Today
New Moon
Oct 30
First Quarter
Nov 6
Full
Nov 14
Last Quarter
Nov 22
New

Today's Extremes

State Highs State Lows

Community

WunderPhotos

Upload Photos

1,764,657 photos uploaded!

Nearby

Snow Depth

Station Depth Elevation
No new snow has been reported.

Earthquake Activity

City Distance Mag. Time & Date
No recent earthquake activity has been reported nearby.
Minimum magnitude displayed is 2.5.

Coastal Water Temperatures

Place Temperature
No Stations Reporting

Nearby Weather Stations